createdAt,value
2023-01-24T00:02:01.607Z,67.10
2023-01-24T00:04:32.806Z,70.80
2023-01-24T00:07:03.548Z,66.20
2023-01-24T00:09:34.328Z,65.50
2023-01-24T00:12:05.083Z,71.50
2023-01-24T00:14:36.065Z,71.10
2023-01-24T00:17:08.961Z,78.10
2023-01-24T00:19:39.679Z,76.40
2023-01-24T00:22:10.326Z,70.50
2023-01-24T00:24:41.138Z,69.90
2023-01-24T00:27:11.923Z,65.50
2023-01-24T00:29:42.725Z,61.60
2023-01-24T00:32:13.705Z,69.90
2023-01-24T00:34:44.401Z,77.00
2023-01-24T00:37:15.087Z,73.00
2023-01-24T00:39:45.858Z,71.00
2023-01-24T00:42:16.959Z,78.40
2023-01-24T00:44:47.701Z,74.50
2023-01-24T00:47:18.602Z,66.70
2023-01-24T00:49:49.311Z,73.40
2023-01-24T00:52:20.283Z,67.20
2023-01-24T00:54:52.455Z,60.80
2023-01-24T00:57:25.428Z,68.70
2023-01-24T00:59:56.181Z,72.90
2023-01-24T01:02:27.543Z,72.00
2023-01-24T01:04:58.282Z,67.20
2023-01-24T01:07:29.062Z,74.50
2023-01-24T01:09:59.836Z,77.00
2023-01-24T01:12:30.777Z,67.10
2023-01-24T01:15:01.542Z,67.70
2023-01-24T01:17:32.461Z,73.30
2023-01-24T01:20:03.439Z,69.60
2023-01-24T01:22:34.323Z,68.50
2023-01-24T01:25:06.846Z,74.10
2023-01-24T01:27:37.557Z,58.80
2023-01-24T01:30:10.512Z,65.20
2023-01-24T01:32:41.652Z,84.40
2023-01-24T01:35:13.066Z,64.40
2023-01-24T01:37:44.108Z,71.40
2023-01-24T01:40:15.664Z,75.40
2023-01-24T01:42:53.516Z,68.30
2023-01-24T01:45:48.006Z,60.00
2023-01-24T01:48:25.260Z,70.10
2023-01-24T01:51:03.843Z,65.10
2023-01-24T01:53:42.673Z,68.80
2023-01-24T01:56:22.748Z,79.30
2023-01-24T01:58:55.525Z,67.70
2023-01-24T02:01:26.709Z,73.10
2023-01-24T02:04:09.395Z,72.40
2023-01-24T02:09:42.475Z,62.30
2023-01-24T02:12:17.810Z,66.80
2023-01-24T02:15:07.875Z,69.40
2023-01-24T02:17:38.927Z,69.00
2023-01-24T02:20:28.401Z,62.80
2023-01-24T02:23:13.013Z,64.30
2023-01-24T02:25:53.428Z,75.80
2023-01-24T02:28:24.571Z,65.00
2023-01-24T02:31:00.431Z,61.10
2023-01-24T02:33:32.110Z,64.80
2023-01-24T02:36:21.328Z,63.00
2023-01-24T02:38:59.996Z,58.10
2023-01-24T02:41:37.805Z,69.80
2023-01-24T02:44:14.695Z,67.90
2023-01-24T02:46:48.085Z,73.90
2023-01-24T02:49:20.321Z,66.90
2023-01-24T02:52:11.263Z,59.40
2023-01-24T02:54:45.199Z,64.00
2023-01-24T02:57:34.566Z,59.80
2023-01-24T03:00:09.050Z,59.00
2023-01-24T03:02:41.705Z,53.00
2023-01-24T03:05:15.905Z,70.10
2023-01-24T03:07:47.195Z,59.70
2023-01-24T03:10:23.195Z,61.00
2023-01-24T03:13:14.229Z,59.70
2023-01-24T03:16:03.478Z,60.80
2023-01-24T03:18:52.844Z,63.20
2023-01-24T03:21:43.313Z,59.00
2023-01-24T03:24:34.699Z,64.00
2023-01-24T03:27:23.983Z,62.90
2023-01-24T03:30:12.925Z,70.60
2023-01-24T03:33:02.840Z,59.70
2023-01-24T03:35:35.129Z,58.40
2023-01-24T03:38:25.718Z,60.60
2023-01-24T03:40:59.141Z,66.30
2023-01-24T03:43:31.363Z,63.70
2023-01-24T03:46:02.691Z,60.60
2023-01-24T03:48:48.511Z,60.20
2023-01-24T03:51:37.574Z,65.90
2023-01-24T03:54:09.030Z,58.50
2023-01-24T03:56:46.616Z,56.90
2023-01-24T03:59:17.848Z,57.60
2023-01-24T04:01:52.100Z,56.70
2023-01-24T04:04:49.304Z,64.50
2023-01-24T04:07:27.004Z,54.10
2023-01-24T04:10:08.963Z,51.00
2023-01-24T04:12:44.938Z,55.30
2023-01-24T04:15:28.143Z,58.50
2023-01-24T04:18:10.306Z,70.20
2023-01-24T04:20:41.715Z,54.40
2023-01-24T04:23:14.190Z,60.70
2023-01-24T04:25:55.626Z,58.90
2023-01-24T04:28:27.442Z,55.00
2023-01-24T04:31:03.271Z,53.90
2023-01-24T04:33:50.824Z,69.70
2023-01-24T04:36:22.181Z,54.50
2023-01-24T04:38:53.112Z,57.90
2023-01-24T04:41:29.281Z,58.30
2023-01-24T04:44:00.684Z,60.50
2023-01-24T04:46:33.040Z,55.20
2023-01-24T04:49:05.086Z,52.90
2023-01-24T04:51:43.926Z,51.90
2023-01-24T04:54:20.747Z,61.90
2023-01-24T04:56:52.647Z,58.40
2023-01-24T04:59:23.613Z,56.80
2023-01-24T05:01:54.870Z,52.90
2023-01-24T05:04:40.888Z,68.40
2023-01-24T05:07:12.067Z,51.00
2023-01-24T05:09:43.076Z,49.00
2023-01-24T05:12:15.778Z,63.20
2023-01-24T05:14:47.137Z,56.10
2023-01-24T05:17:18.834Z,56.80
2023-01-24T05:19:52.979Z,60.10
2023-01-24T05:22:32.356Z,48.70
2023-01-24T05:25:03.423Z,52.00
2023-01-24T05:27:34.488Z,51.80
2023-01-24T05:30:26.704Z,58.20
2023-01-24T05:33:00.881Z,55.50
2023-01-24T05:35:32.098Z,49.90
2023-01-24T05:38:18.076Z,56.30
2023-01-24T05:41:02.925Z,54.00
2023-01-24T05:43:41.875Z,60.00
2023-01-24T05:46:17.625Z,51.70
2023-01-24T05:48:58.529Z,48.40
2023-01-24T05:52:07.442Z,56.80
2023-01-24T05:54:50.925Z,63.00
2023-01-24T05:57:31.323Z,58.60
2023-01-24T06:00:24.834Z,52.90
2023-01-24T06:03:19.176Z,53.50
2023-01-24T06:05:56.451Z,53.10
2023-01-24T06:08:28.397Z,51.00
2023-01-24T06:11:03.239Z,60.10
2023-01-24T06:13:34.989Z,53.30
2023-01-24T06:16:13.008Z,50.50
2023-01-24T06:18:46.670Z,51.50
2023-01-24T06:21:36.988Z,58.30
2023-01-24T06:24:11.121Z,60.10
2023-01-24T06:26:59.674Z,54.30
2023-01-24T06:29:40.641Z,51.80
2023-01-24T06:32:31.072Z,44.30
2023-01-24T06:35:20.806Z,45.60
2023-01-24T06:37:54.783Z,48.30
2023-01-24T06:40:31.690Z,52.40
2023-01-24T06:43:03.756Z,50.20
2023-01-24T06:45:36.043Z,46.20
2023-01-24T06:48:09.296Z,58.50
2023-01-24T06:50:40.912Z,52.10
2023-01-24T06:53:16.827Z,48.30
2023-01-24T06:55:49.821Z,56.40
2023-01-24T06:58:24.415Z,55.80
2023-01-24T07:00:56.794Z,80.50
2023-01-24T07:03:32.658Z,71.00
2023-01-24T07:06:04.177Z,56.10
2023-01-24T07:08:35.655Z,54.80
2023-01-24T07:11:07.047Z,58.40
2023-01-24T07:13:40.656Z,58.60
2023-01-24T07:16:12.170Z,54.80
2023-01-24T07:18:46.174Z,55.20
2023-01-24T07:21:18.981Z,53.60
2023-01-24T07:23:58.190Z,54.40
2023-01-24T07:26:30.688Z,54.40
2023-01-24T07:29:01.634Z,50.80
2023-01-24T07:31:35.660Z,51.40
2023-01-24T07:34:06.778Z,54.20
2023-01-24T07:36:40.241Z,69.00
2023-01-24T07:39:11.265Z,65.60
2023-01-24T07:41:43.687Z,56.80
2023-01-24T07:44:16.520Z,55.00
2023-01-24T07:46:47.636Z,54.30
2023-01-24T07:49:20.209Z,55.90
2023-01-24T07:52:07.170Z,59.30
2023-01-24T07:54:46.268Z,58.30
2023-01-24T07:57:18.224Z,50.60
2023-01-24T07:59:53.129Z,66.50
2023-01-24T08:02:27.386Z,62.70
2023-01-24T08:05:12.460Z,62.30
2023-01-24T08:07:55.890Z,69.20
2023-01-24T08:10:28.175Z,61.10
2023-01-24T08:12:59.805Z,66.10
2023-01-24T08:15:33.542Z,63.70
2023-01-24T08:18:06.720Z,63.30
2023-01-24T08:20:38.016Z,69.10
2023-01-24T08:23:09.088Z,77.10
2023-01-24T08:25:41.001Z,68.20
2023-01-24T08:28:12.236Z,53.70
2023-01-24T08:30:45.401Z,56.60
2023-01-24T08:33:19.964Z,60.30
2023-01-24T08:35:53.024Z,64.10
2023-01-24T08:38:26.458Z,62.50
2023-01-24T08:40:57.675Z,63.30
2023-01-24T08:43:29.075Z,53.70
2023-01-24T08:46:00.224Z,55.20
2023-01-24T08:48:34.039Z,63.70
2023-01-24T08:51:08.863Z,60.90
2023-01-24T08:53:39.969Z,54.10
2023-01-24T08:56:12.772Z,63.40
2023-01-24T08:58:45.042Z,58.70
2023-01-24T09:01:18.448Z,61.90
2023-01-24T09:03:50.053Z,57.50
2023-01-24T09:06:21.966Z,62.90
2023-01-24T09:08:55.797Z,65.60
2023-01-24T09:11:26.942Z,54.80
2023-01-24T09:13:59.375Z,60.10
2023-01-24T09:16:31.762Z,49.60
2023-01-24T09:19:14.645Z,67.80
2023-01-24T09:21:52.597Z,54.90
2023-01-24T09:24:24.586Z,66.40
2023-01-24T09:26:55.672Z,67.10
2023-01-24T09:29:29.049Z,56.40
2023-01-24T09:32:00.614Z,59.80
2023-01-24T09:34:31.629Z,56.20
2023-01-24T09:37:02.861Z,58.60
2023-01-24T09:39:39.145Z,61.60
2023-01-24T09:42:25.869Z,58.00
2023-01-24T09:45:17.363Z,54.80
2023-01-24T09:47:55.187Z,46.60
2023-01-24T09:50:34.806Z,51.40
2023-01-24T09:53:06.322Z,48.60
2023-01-24T09:55:42.749Z,50.80
2023-01-24T09:58:31.803Z,50.80
2023-01-24T10:01:07.955Z,43.50
2023-01-24T10:03:41.185Z,50.30
2023-01-24T10:06:30.431Z,48.20
2023-01-24T10:09:56.055Z,46.80
2023-01-24T10:13:08.395Z,53.70
2023-01-24T10:16:13.413Z,47.80
2023-01-24T10:19:08.437Z,45.30
2023-01-24T10:26:08.487Z,44.50
2023-01-24T10:30:23.088Z,56.00
2023-01-24T10:33:42.982Z,47.10
2023-01-24T10:40:15.287Z,43.50
2023-01-24T10:42:46.601Z,52.30
2023-01-24T10:49:20.340Z,50.70
2023-01-24T10:52:40.044Z,47.70
2023-01-24T10:55:45.705Z,41.50
2023-01-24T10:58:38.420Z,46.70
2023-01-24T11:04:34.662Z,44.90
2023-01-24T11:07:21.674Z,46.50
2023-01-24T11:10:47.500Z,47.10
2023-01-24T11:14:09.750Z,40.00
2023-01-24T11:16:52.657Z,47.60
2023-01-24T11:20:18.979Z,44.60
2023-01-24T11:25:34.925Z,44.20
2023-01-24T11:28:29.124Z,48.50
2023-01-24T11:31:20.143Z,56.80
2023-01-24T11:34:41.796Z,48.70
2023-01-24T11:38:09.843Z,51.10
2023-01-24T11:40:43.813Z,46.90
2023-01-24T11:43:37.513Z,50.30
2023-01-24T11:50:03.630Z,46.50
2023-01-24T11:54:01.901Z,45.40
2023-01-24T11:57:09.623Z,50.70
2023-01-24T12:00:33.054Z,47.90
2023-01-24T12:03:59.303Z,48.00
2023-01-24T12:07:10.177Z,47.40
2023-01-24T12:09:56.696Z,51.30
2023-01-24T12:12:44.375Z,48.60
2023-01-24T12:15:54.883Z,49.60
2023-01-24T12:18:57.641Z,48.30
2023-01-24T12:21:29.563Z,44.20
2023-01-24T12:24:07.417Z,45.10
2023-01-24T12:26:45.195Z,46.00
2023-01-24T12:29:23.579Z,45.20
2023-01-24T12:32:00.744Z,46.90
2023-01-24T12:34:45.134Z,51.50
2023-01-24T12:37:26.189Z,41.80
2023-01-24T12:40:04.922Z,45.40
2023-01-24T12:42:51.057Z,61.20
2023-01-24T12:45:27.684Z,43.90
2023-01-24T12:48:06.711Z,41.60
2023-01-24T12:50:45.923Z,47.50
2023-01-24T12:53:25.053Z,46.40
2023-01-24T12:56:06.293Z,43.70
2023-01-24T12:58:41.840Z,47.20
2023-01-24T13:01:32.968Z,40.80
2023-01-24T13:04:18.526Z,46.40
2023-01-24T13:06:59.783Z,45.00
2023-01-24T13:09:37.819Z,47.20
2023-01-24T13:12:17.759Z,35.30
2023-01-24T13:14:55.165Z,39.50
2023-01-24T13:18:01.874Z,30.90
2023-01-24T13:20:56.305Z,33.40
2023-01-24T13:23:49.142Z,31.80
2023-01-24T13:26:35.413Z,27.80
2023-01-24T13:29:21.398Z,32.70
2023-01-24T13:32:01.459Z,34.30
2023-01-24T13:34:36.204Z,35.80
2023-01-24T13:37:09.156Z,36.00
2023-01-24T13:39:44.340Z,36.90
2023-01-24T13:42:33.510Z,32.90
2023-01-24T13:45:42.500Z,32.50
2023-01-24T13:48:44.860Z,36.80
2023-01-24T13:51:48.897Z,32.20
2023-01-24T13:54:41.044Z,36.50
2023-01-24T13:57:29.904Z,35.80
2023-01-24T14:00:20.222Z,33.10
2023-01-24T14:03:17.041Z,34.50
2023-01-24T14:05:52.267Z,37.00
2023-01-24T14:08:42.223Z,32.10
2023-01-24T14:11:24.504Z,32.50
2023-01-24T14:14:02.450Z,35.00
2023-01-24T14:17:06.773Z,35.00
2023-01-24T14:19:41.939Z,32.60
2023-01-24T14:22:31.094Z,29.40
2023-01-24T14:25:30.965Z,33.80
2023-01-24T14:28:04.440Z,33.50
2023-01-24T14:30:49.568Z,31.50
2023-01-24T14:33:32.264Z,31.90
2023-01-24T14:36:07.673Z,35.80
2023-01-24T14:38:38.920Z,34.90
2023-01-24T14:41:22.727Z,42.00
2023-01-24T14:43:54.859Z,34.60
2023-01-24T14:46:27.558Z,31.90
2023-01-24T14:48:58.818Z,39.00
2023-01-24T14:51:30.123Z,36.00
2023-01-24T14:54:08.311Z,33.80
2023-01-24T14:56:43.960Z,41.00
2023-01-24T14:59:19.208Z,45.90
2023-01-24T15:02:02.342Z,36.40
2023-01-24T15:04:33.543Z,38.10
2023-01-24T15:07:12.997Z,42.70
2023-01-24T15:09:45.136Z,36.20
2023-01-24T15:12:24.707Z,53.30
2023-01-24T15:14:57.285Z,49.40
2023-01-24T15:17:31.806Z,51.60
2023-01-24T15:20:09.816Z,41.10
2023-01-24T15:22:42.556Z,42.30
2023-01-24T15:25:24.888Z,52.60
2023-01-24T15:27:58.819Z,40.70
2023-01-24T15:30:30.851Z,50.30
2023-01-24T15:33:12.734Z,45.40
2023-01-24T15:35:50.229Z,41.80
2023-01-24T15:38:30.222Z,60.10
2023-01-24T15:41:19.301Z,46.40
2023-01-24T15:44:01.208Z,42.80
2023-01-24T15:46:55.153Z,40.00
2023-01-24T15:49:38.843Z,48.10
2023-01-24T15:52:21.048Z,40.80
2023-01-24T15:54:59.465Z,47.40
2023-01-24T15:57:33.944Z,47.50
2023-01-24T16:00:26.045Z,48.60
2023-01-24T16:02:58.443Z,49.90
2023-01-24T16:05:30.659Z,43.00
2023-01-24T16:08:01.803Z,42.40
2023-01-24T16:10:33.939Z,39.00
2023-01-24T16:13:05.542Z,44.50
2023-01-24T16:16:04.586Z,40.60
2023-01-24T16:18:42.335Z,44.60
2023-01-24T16:22:27.530Z,41.10
2023-01-24T16:29:22.296Z,38.60
2023-01-24T16:31:53.718Z,42.20
2023-01-24T16:34:25.701Z,38.70
2023-01-24T16:36:56.685Z,41.70
2023-01-24T16:39:29.182Z,43.10
2023-01-24T16:42:05.636Z,40.60
2023-01-24T16:44:51.724Z,41.70
2023-01-24T16:47:34.701Z,44.10
2023-01-24T16:50:18.908Z,44.30
2023-01-24T16:52:53.909Z,43.80
2023-01-24T16:55:25.348Z,44.00
2023-01-24T16:58:00.993Z,41.40
2023-01-24T17:00:34.011Z,51.90
2023-01-24T17:03:06.026Z,40.10
2023-01-24T17:05:40.418Z,40.70
2023-01-24T17:08:15.344Z,49.80
2023-01-24T17:10:48.036Z,47.50
2023-01-24T17:13:21.158Z,45.70
2023-01-24T17:15:53.459Z,48.50
2023-01-24T17:18:25.829Z,49.70
2023-01-24T17:20:56.968Z,43.80
2023-01-24T17:23:28.621Z,49.80
2023-01-24T17:26:06.220Z,52.30
2023-01-24T17:28:48.479Z,50.70
2023-01-24T17:31:23.058Z,50.00
2023-01-24T17:33:56.399Z,52.50
2023-01-24T17:37:15.042Z,53.70
2023-01-24T17:39:46.027Z,53.60
2023-01-24T17:42:17.497Z,43.70
2023-01-24T17:44:54.583Z,51.00
2023-01-24T17:47:32.674Z,46.10
2023-01-24T17:50:10.130Z,44.00
2023-01-24T17:52:41.305Z,43.90
2023-01-24T17:55:14.778Z,39.10
2023-01-24T17:57:50.881Z,46.80
2023-01-24T18:00:26.408Z,42.50
2023-01-24T18:02:57.790Z,44.20
2023-01-24T18:16:43.347Z,45.20
2023-01-24T18:19:16.755Z,46.70
2023-01-24T18:21:48.648Z,51.10
2023-01-24T18:24:27.004Z,50.20
2023-01-24T18:26:58.742Z,49.50
2023-01-24T18:29:30.292Z,41.20
2023-01-24T18:32:01.645Z,33.10
2023-01-24T18:34:33.279Z,41.10
2023-01-24T18:37:04.450Z,33.10
2023-01-24T18:39:35.644Z,34.90
2023-01-24T18:42:08.344Z,38.20
2023-01-24T18:44:39.400Z,41.50
2023-01-24T18:47:10.649Z,36.40
2023-01-24T18:49:41.705Z,41.00
2023-01-24T18:52:13.299Z,38.60
2023-01-24T18:54:44.546Z,44.90
2023-01-24T18:57:15.700Z,43.40
2023-01-24T18:59:46.948Z,48.40
2023-01-24T19:02:18.170Z,45.50
2023-01-24T19:04:49.510Z,49.10
2023-01-24T19:07:20.606Z,54.60
2023-01-24T19:09:51.797Z,51.90
2023-01-24T19:12:22.959Z,59.40
2023-01-24T19:14:54.714Z,63.90
2023-01-24T19:17:26.331Z,60.00
2023-01-24T19:19:57.627Z,57.50
2023-01-24T19:22:28.799Z,54.40
2023-01-24T19:25:00.275Z,58.60
2023-01-24T19:27:31.412Z,71.80
2023-01-24T19:30:02.554Z,59.80
2023-01-24T19:32:33.661Z,67.90
2023-01-24T19:35:05.294Z,52.60
2023-01-24T19:37:36.537Z,58.00
2023-01-24T19:40:10.023Z,56.90
2023-01-24T19:42:42.621Z,56.90
2023-01-24T19:45:15.119Z,54.50
2023-01-24T19:47:47.663Z,55.10
2023-01-24T19:50:19.607Z,63.50
2023-01-24T19:52:52.140Z,61.00
2023-01-24T19:55:23.227Z,48.80
2023-01-24T19:57:54.410Z,57.30
2023-01-24T20:00:25.675Z,55.00
2023-01-24T20:02:56.912Z,53.50
2023-01-24T20:05:29.138Z,55.10
2023-01-24T20:08:00.944Z,56.40
2023-01-24T20:10:32.200Z,59.00
2023-01-24T20:13:04.095Z,59.10
2023-01-24T20:15:35.594Z,58.90
2023-01-24T20:18:10.380Z,59.50
2023-01-24T20:20:49.336Z,51.40
2023-01-24T20:23:20.835Z,56.40
2023-01-24T20:25:53.339Z,53.60
2023-01-24T20:28:26.467Z,55.60
2023-01-24T20:31:00.153Z,50.90
2023-01-24T20:33:32.282Z,49.10
2023-01-24T20:36:06.905Z,46.30
2023-01-24T20:38:39.562Z,41.80
2023-01-24T20:41:13.334Z,38.30
2023-01-24T20:43:46.023Z,34.10
2023-01-24T20:46:20.800Z,31.50
2023-01-24T20:48:53.640Z,29.70
2023-01-24T20:51:29.304Z,35.50
2023-01-24T20:54:01.938Z,35.10
2023-01-24T20:56:34.043Z,34.20
2023-01-24T20:59:05.363Z,33.50
2023-01-24T21:01:36.490Z,31.60
2023-01-24T21:04:08.667Z,28.70
2023-01-24T21:06:41.789Z,31.90
2023-01-24T21:09:14.542Z,31.80
2023-01-24T21:11:47.827Z,31.80
2023-01-24T21:14:20.875Z,29.30
2023-01-24T21:16:53.066Z,28.00
2023-01-24T21:19:25.890Z,31.20
2023-01-24T21:21:57.303Z,30.10
2023-01-24T21:24:33.715Z,38.60
2023-01-24T21:27:05.683Z,31.10
2023-01-24T21:29:36.954Z,31.40
2023-01-24T21:32:08.513Z,34.10
2023-01-24T21:34:39.753Z,36.10
2023-01-24T21:37:22.747Z,32.90
2023-01-24T21:40:02.399Z,33.80
2023-01-24T21:42:33.444Z,32.10
2023-01-24T21:45:05.250Z,37.10
2023-01-24T21:47:36.809Z,33.80
2023-01-24T21:50:08.762Z,34.30
2023-01-24T21:52:39.895Z,30.60
2023-01-24T21:55:11.510Z,34.50
2023-01-24T21:58:00.482Z,36.30
2023-01-24T22:00:34.527Z,34.20
2023-01-24T22:03:19.615Z,28.70
2023-01-24T22:05:52.127Z,31.10
2023-01-24T22:08:23.328Z,30.50
2023-01-24T22:11:00.275Z,31.60
2023-01-24T22:13:31.485Z,28.30
2023-01-24T22:16:03.563Z,32.80
2023-01-24T22:18:35.586Z,32.80
2023-01-24T22:21:18.003Z,36.80
2023-01-24T22:23:57.474Z,39.00
2023-01-24T22:26:34.224Z,42.80
2023-01-24T22:29:05.958Z,39.00
2023-01-24T22:31:38.467Z,38.10
2023-01-24T22:34:13.052Z,40.20
2023-01-24T22:36:45.828Z,43.80
2023-01-24T22:39:16.911Z,38.70
2023-01-24T22:41:47.815Z,41.60
2023-01-24T22:44:18.732Z,40.00
2023-01-24T22:46:49.940Z,41.30
2023-01-24T22:49:20.873Z,39.80
2023-01-24T22:51:51.920Z,46.50
2023-01-24T22:54:22.959Z,49.30
2023-01-24T22:56:54.010Z,43.40
2023-01-24T22:59:24.924Z,40.60
2023-01-24T23:01:56.016Z,35.80
2023-01-24T23:04:27.146Z,41.30
2023-01-24T23:06:58.158Z,35.50
2023-01-24T23:09:29.271Z,36.20
2023-01-24T23:12:00.401Z,35.50
2023-01-24T23:14:49.129Z,37.40
2023-01-24T23:17:20.298Z,31.10
2023-01-24T23:20:08.865Z,36.40
2023-01-24T23:22:39.882Z,34.20
2023-01-24T23:25:11.430Z,37.80
2023-01-24T23:27:42.765Z,36.60
2023-01-24T23:30:33.878Z,34.10
2023-01-24T23:33:24.108Z,32.60
2023-01-24T23:35:55.231Z,30.60
2023-01-24T23:38:26.274Z,31.90
2023-01-24T23:40:57.311Z,33.30
2023-01-24T23:43:28.386Z,32.90
2023-01-24T23:45:59.465Z,28.30
2023-01-24T23:48:30.645Z,33.30
2023-01-24T23:51:02.626Z,32.30
2023-01-24T23:53:33.848Z,31.50
2023-01-24T23:56:05.523Z,31.20
2023-01-24T23:58:36.501Z,25.20
